createdAt,value
2023-09-26T00:00:25.011Z,13.88
2023-09-26T00:02:54.280Z,13.83
2023-09-26T00:05:24.553Z,13.74
2023-09-26T00:07:53.120Z,13.67
2023-09-26T00:10:21.589Z,13.69
2023-09-26T00:12:49.633Z,13.71
2023-09-26T00:15:17.302Z,13.68
2023-09-26T00:17:45.295Z,13.65
2023-09-26T00:20:20.177Z,13.67
2023-09-26T00:22:48.007Z,13.66
2023-09-26T00:25:16.088Z,13.66
2023-09-26T00:27:43.972Z,13.63
2023-09-26T00:30:11.601Z,13.61
2023-09-26T00:32:40.292Z,13.59
2023-09-26T00:35:13.355Z,13.58
2023-09-26T00:37:43.426Z,13.58
2023-09-26T00:40:13.854Z,13.60
2023-09-26T00:42:41.660Z,13.61
2023-09-26T00:45:09.445Z,13.68
2023-09-26T00:47:38.053Z,13.79
2023-09-26T00:50:12.789Z,13.79
2023-09-26T00:52:46.965Z,13.78
2023-09-26T00:55:16.013Z,13.71
2023-09-26T00:57:44.443Z,13.74
2023-09-26T01:00:14.561Z,13.77
2023-09-26T01:02:43.175Z,13.81
2023-09-26T01:05:10.782Z,13.81
2023-09-26T01:07:39.639Z,13.87
2023-09-26T01:10:08.632Z,13.88
2023-09-26T01:12:37.705Z,13.79
2023-09-26T01:15:06.745Z,13.72
2023-09-26T01:17:34.395Z,13.77
2023-09-26T01:20:02.459Z,13.79
2023-09-26T01:22:32.304Z,13.78
2023-09-26T01:25:00.913Z,13.75
2023-09-26T01:27:28.545Z,13.67
2023-09-26T01:29:56.606Z,13.54
2023-09-26T01:32:24.381Z,13.47
2023-09-26T01:34:53.340Z,13.58
2023-09-26T01:37:21.895Z,13.62
2023-09-26T01:39:49.409Z,13.55
2023-09-26T01:42:16.976Z,13.58
2023-09-26T01:44:44.474Z,13.50
2023-09-26T01:47:19.586Z,13.48
2023-09-26T01:49:47.517Z,13.46
2023-09-26T01:52:15.126Z,13.37
2023-09-26T01:54:42.883Z,13.39
2023-09-26T01:57:10.433Z,13.50
2023-09-26T01:59:37.989Z,13.53
2023-09-26T02:02:05.582Z,13.56
2023-09-26T02:04:33.237Z,13.59
2023-09-26T02:07:00.722Z,13.63
2023-09-26T02:09:28.387Z,13.59
2023-09-26T02:11:56.267Z,13.60
2023-09-26T02:14:23.812Z,13.54
2023-09-26T02:16:51.458Z,13.49
2023-09-26T02:19:19.191Z,13.54
2023-09-26T02:21:47.155Z,13.51
2023-09-26T02:24:14.777Z,13.54
2023-09-26T02:26:42.853Z,13.57
2023-09-26T02:29:10.578Z,13.64
2023-09-26T02:31:38.086Z,13.64
2023-09-26T02:34:07.405Z,13.69
2023-09-26T02:36:34.946Z,13.66
2023-09-26T02:39:02.509Z,13.68
2023-09-26T02:41:30.102Z,13.69
2023-09-26T02:44:00.006Z,13.71
2023-09-26T02:46:27.794Z,13.75
2023-09-26T02:48:55.425Z,13.85
2023-09-26T02:51:22.989Z,13.91
2023-09-26T02:53:50.704Z,13.89
2023-09-26T02:56:18.619Z,13.94
2023-09-26T02:58:46.125Z,13.94
2023-09-26T03:01:18.269Z,13.98
2023-09-26T03:03:46.093Z,13.89
2023-09-26T03:06:13.648Z,13.83
2023-09-26T03:08:41.432Z,13.70
2023-09-26T03:11:08.916Z,13.62
2023-09-26T03:13:36.593Z,13.52
2023-09-26T03:16:05.827Z,13.59
2023-09-26T03:18:33.514Z,13.52
2023-09-26T03:21:06.595Z,13.60
2023-09-26T03:23:35.050Z,13.67
2023-09-26T03:26:02.584Z,13.69
2023-09-26T03:28:30.223Z,13.58
2023-09-26T03:30:57.857Z,13.61
2023-09-26T03:33:25.695Z,13.52
2023-09-26T03:35:53.236Z,13.51
2023-09-26T03:38:22.324Z,13.53
2023-09-26T03:41:00.405Z,13.49
2023-09-26T03:43:28.337Z,13.54
2023-09-26T03:46:07.815Z,13.52
2023-09-26T03:48:36.500Z,13.48
2023-09-26T03:51:15.050Z,13.44
2023-09-26T03:53:43.774Z,13.43
2023-09-26T03:56:11.393Z,13.40
2023-09-26T03:58:39.555Z,13.38
2023-09-26T04:01:16.021Z,13.33
2023-09-26T04:03:47.736Z,13.31
2023-09-26T04:06:18.251Z,13.34
2023-09-26T04:08:47.159Z,13.40
2023-09-26T04:11:18.918Z,13.40
2023-09-26T04:13:46.625Z,13.37
2023-09-26T04:16:14.250Z,13.38
2023-09-26T04:18:41.835Z,13.41
2023-09-26T04:21:12.153Z,13.33
2023-09-26T04:23:40.513Z,13.34
2023-09-26T04:26:16.082Z,13.44
2023-09-26T04:28:45.088Z,13.48
2023-09-26T04:31:20.423Z,13.50
2023-09-26T04:33:51.843Z,13.53
2023-09-26T04:36:19.831Z,13.58
2023-09-26T04:38:48.051Z,13.53
2023-09-26T04:41:15.726Z,13.58
2023-09-26T04:43:43.517Z,13.60
2023-09-26T04:46:15.399Z,13.60
2023-09-26T04:48:44.976Z,13.63
2023-09-26T04:51:15.874Z,13.63
2023-09-26T04:53:43.840Z,13.64
2023-09-26T04:56:11.549Z,13.64
2023-09-26T04:58:39.594Z,13.75
2023-09-26T05:01:15.836Z,13.75
2023-09-26T05:03:44.591Z,13.73
2023-09-26T05:06:13.345Z,13.91
2023-09-26T05:08:41.986Z,14.08
2023-09-26T05:11:18.356Z,14.33
2023-09-26T05:13:46.163Z,14.56
2023-09-26T05:16:16.132Z,14.96
2023-09-26T05:18:43.926Z,15.19
2023-09-26T05:21:13.058Z,15.56
2023-09-26T05:23:40.862Z,15.92
2023-09-26T05:26:10.577Z,16.29
2023-09-26T05:28:38.792Z,16.57
2023-09-26T05:31:06.958Z,16.94
2023-09-26T05:33:34.542Z,17.34
2023-09-26T05:36:02.082Z,17.65
2023-09-26T05:38:29.839Z,17.93
2023-09-26T05:40:57.513Z,18.23
2023-09-26T05:43:25.105Z,18.08
2023-09-26T05:45:52.949Z,18.24
2023-09-26T05:48:21.153Z,18.52
2023-09-26T05:50:48.740Z,18.19
2023-09-26T05:53:16.421Z,18.26
2023-09-26T05:55:43.854Z,18.31
2023-09-26T05:58:11.606Z,18.48
2023-09-26T06:00:39.219Z,18.84
2023-09-26T06:03:07.055Z,18.63
2023-09-26T06:05:37.792Z,18.79
2023-09-26T06:08:05.731Z,18.54
2023-09-26T06:10:33.370Z,18.24
2023-09-26T06:13:01.491Z,18.55
2023-09-26T06:15:29.354Z,18.50
2023-09-26T06:18:01.272Z,18.68
2023-09-26T06:20:29.654Z,18.58
2023-09-26T06:22:57.936Z,18.39
2023-09-26T06:25:25.577Z,18.63
2023-09-26T06:27:53.458Z,19.03
2023-09-26T06:30:21.115Z,19.48
2023-09-26T06:32:48.763Z,19.78
2023-09-26T06:35:16.349Z,20.19
2023-09-26T06:37:43.826Z,20.39
2023-09-26T06:40:12.057Z,20.33
2023-09-26T06:42:40.510Z,20.25
2023-09-26T06:45:09.522Z,20.20
2023-09-26T06:47:37.161Z,20.17
2023-09-26T06:50:06.558Z,20.08
2023-09-26T06:52:34.950Z,20.20
2023-09-26T06:55:04.320Z,20.16
2023-09-26T06:57:31.905Z,20.26
2023-09-26T07:00:00.836Z,20.06
2023-09-26T07:02:28.392Z,19.89
2023-09-26T07:04:57.838Z,20.06
2023-09-26T07:07:25.609Z,19.81
2023-09-26T07:09:53.241Z,19.94
2023-09-26T07:12:20.824Z,20.02
2023-09-26T07:14:49.135Z,20.12
2023-09-26T07:17:16.817Z,20.30
2023-09-26T07:19:44.317Z,20.30
2023-09-26T07:22:11.958Z,20.52
2023-09-26T07:24:49.783Z,20.55
2023-09-26T07:27:19.522Z,21.06
2023-09-26T07:29:48.431Z,21.21
2023-09-26T07:32:16.988Z,21.26
2023-09-26T07:34:44.587Z,21.45
2023-09-26T07:37:13.567Z,21.39
2023-09-26T07:39:46.386Z,21.68
2023-09-26T07:42:14.025Z,21.67
2023-09-26T07:44:41.576Z,21.92
2023-09-26T07:47:09.661Z,21.98
2023-09-26T07:49:37.269Z,22.58
2023-09-26T07:52:05.439Z,22.69
2023-09-26T07:54:33.722Z,22.02
2023-09-26T07:57:01.317Z,22.14
2023-09-26T07:59:28.966Z,22.18
2023-09-26T08:01:56.565Z,22.62
2023-09-26T08:04:24.861Z,22.54
2023-09-26T08:06:52.538Z,22.62
2023-09-26T08:09:20.022Z,22.92
2023-09-26T08:11:47.855Z,23.25
2023-09-26T08:14:15.388Z,23.16
2023-09-26T08:16:43.020Z,22.78
2023-09-26T08:19:10.628Z,22.41
2023-09-26T08:21:38.341Z,21.93
2023-09-26T08:24:06.141Z,21.49
2023-09-26T08:26:33.853Z,21.39
2023-09-26T08:29:01.623Z,21.24
2023-09-26T08:31:29.260Z,21.21
2023-09-26T08:33:56.992Z,21.40
2023-09-26T08:36:24.824Z,21.38
2023-09-26T08:38:52.861Z,21.59
2023-09-26T08:41:21.685Z,21.63
2023-09-26T08:46:18.649Z,21.69
2023-09-26T08:48:47.531Z,21.66
2023-09-26T08:51:15.346Z,21.46
2023-09-26T08:53:42.868Z,21.47
2023-09-26T08:56:10.496Z,21.39
2023-09-26T08:58:41.926Z,21.22
2023-09-26T09:01:09.982Z,21.42
2023-09-26T09:03:37.676Z,21.33
2023-09-26T09:06:06.315Z,21.37
2023-09-26T09:08:33.978Z,21.44
2023-09-26T09:11:01.638Z,21.41
2023-09-26T09:13:34.661Z,21.13
2023-09-26T09:16:20.133Z,21.01
2023-09-26T09:19:01.123Z,20.95
2023-09-26T09:21:35.621Z,20.73
2023-09-26T09:24:14.002Z,20.87
2023-09-26T09:26:42.352Z,21.08
2023-09-26T09:29:24.510Z,20.99
2023-09-26T09:31:53.311Z,20.83
2023-09-26T09:34:23.162Z,20.87
2023-09-26T09:36:51.709Z,21.10
2023-09-26T09:39:21.061Z,21.33
2023-09-26T09:41:48.977Z,21.25
2023-09-26T09:44:16.579Z,21.41
2023-09-26T09:46:44.722Z,21.31
2023-09-26T09:49:15.706Z,20.80
2023-09-26T09:51:46.132Z,20.77
2023-09-26T09:54:15.697Z,20.83
2023-09-26T09:56:47.620Z,20.99
2023-09-26T09:59:17.998Z,21.14
2023-09-26T10:01:51.496Z,21.31
2023-09-26T10:04:20.716Z,21.82
2023-09-26T10:06:49.022Z,21.83
2023-09-26T10:09:21.769Z,22.07
2023-09-26T10:11:52.689Z,21.94
2023-09-26T10:14:25.219Z,21.98
2023-09-26T10:16:55.848Z,21.95
2023-09-26T10:19:42.131Z,22.00
2023-09-26T10:22:21.762Z,21.96
2023-09-26T10:24:51.662Z,22.33
2023-09-26T10:27:59.394Z,22.52
2023-09-26T10:30:29.773Z,22.66
2023-09-26T10:32:57.952Z,22.70
2023-09-26T10:35:27.503Z,23.06
2023-09-26T10:38:24.750Z,23.36
2023-09-26T10:40:52.726Z,23.10
2023-09-26T10:45:51.014Z,23.59
2023-09-26T10:51:09.748Z,23.73
2023-09-26T10:53:38.050Z,23.75
2023-09-26T10:56:06.272Z,23.78
2023-09-26T11:01:22.521Z,23.88
2023-09-26T11:03:50.307Z,23.77
2023-09-26T11:06:18.421Z,23.79
2023-09-26T11:08:46.134Z,23.85
2023-09-26T11:11:17.664Z,23.90
2023-09-26T11:13:45.534Z,23.90
2023-09-26T11:16:13.418Z,23.91
2023-09-26T11:18:41.202Z,23.62
2023-09-26T11:21:24.116Z,23.45
2023-09-26T11:23:54.908Z,23.82
2023-09-26T11:26:22.500Z,23.83
2023-09-26T11:28:50.911Z,24.01
2023-09-26T11:31:18.874Z,23.75
2023-09-26T11:33:47.199Z,23.81
2023-09-26T11:36:15.499Z,23.74
2023-09-26T11:38:50.455Z,24.13
2023-09-26T11:41:22.517Z,24.35
2023-09-26T11:43:57.305Z,24.21
2023-09-26T11:46:27.012Z,24.23
2023-09-26T11:48:54.628Z,24.43
2023-09-26T11:51:22.236Z,24.75
2023-09-26T11:53:50.321Z,24.57
2023-09-26T11:56:17.908Z,24.35
2023-09-26T11:58:46.722Z,24.32
2023-09-26T12:01:14.684Z,24.00
2023-09-26T12:03:42.250Z,24.02
2023-09-26T12:06:09.852Z,23.91
2023-09-26T12:08:37.677Z,23.79
2023-09-26T12:11:05.664Z,23.56
2023-09-26T12:13:33.415Z,23.75
2023-09-26T12:16:01.109Z,23.80
2023-09-26T12:18:28.769Z,24.09
2023-09-26T12:20:57.456Z,23.84
2023-09-26T12:23:28.317Z,24.12
2023-09-26T12:25:57.415Z,23.94
2023-09-26T12:28:25.002Z,23.93
2023-09-26T12:30:53.625Z,24.01
2023-09-26T12:33:22.845Z,23.82
2023-09-26T12:35:50.484Z,23.73
2023-09-26T12:38:19.001Z,23.97
2023-09-26T12:40:46.728Z,23.86
2023-09-26T12:43:14.374Z,23.82
2023-09-26T12:45:42.216Z,23.70
2023-09-26T12:48:09.728Z,24.00
2023-09-26T12:50:37.476Z,23.98
2023-09-26T12:53:05.383Z,24.01
2023-09-26T12:55:32.992Z,24.04
2023-09-26T12:58:00.578Z,24.14
2023-09-26T13:00:28.129Z,23.93
2023-09-26T13:02:55.867Z,23.64
2023-09-26T13:05:23.560Z,23.85
2023-09-26T13:07:51.072Z,23.82
2023-09-26T13:10:18.766Z,23.61
2023-09-26T13:12:46.263Z,23.45
2023-09-26T13:15:14.017Z,23.70
2023-09-26T13:17:42.015Z,23.72
2023-09-26T13:20:12.579Z,23.58
2023-09-26T13:22:40.460Z,23.45
2023-09-26T13:25:08.834Z,23.42
2023-09-26T13:27:36.483Z,23.69
2023-09-26T13:30:06.025Z,23.44
2023-09-26T13:32:33.956Z,23.47
2023-09-26T13:35:05.216Z,23.45
2023-09-26T13:37:33.125Z,23.33
2023-09-26T13:40:00.841Z,23.35
2023-09-26T13:42:28.467Z,23.20
2023-09-26T13:44:56.056Z,23.35
2023-09-26T13:47:23.825Z,23.34
2023-09-26T13:49:51.395Z,23.21
2023-09-26T13:52:19.020Z,23.19
2023-09-26T13:54:46.568Z,23.16
2023-09-26T13:57:15.362Z,23.08
2023-09-26T13:59:43.167Z,23.30
2023-09-26T14:02:11.031Z,23.39
2023-09-26T14:04:51.916Z,23.21
2023-09-26T14:07:26.436Z,23.22
2023-09-26T14:09:53.946Z,23.31
2023-09-26T14:12:21.604Z,23.29
2023-09-26T14:14:49.141Z,23.24
2023-09-26T14:17:17.689Z,23.12
2023-09-26T14:19:45.240Z,23.18
2023-09-26T14:22:12.869Z,23.19
2023-09-26T14:24:50.975Z,23.26
2023-09-26T14:27:19.696Z,23.26
2023-09-26T14:29:47.178Z,23.08
2023-09-26T14:32:15.037Z,23.00
2023-09-26T14:34:42.828Z,22.89
2023-09-26T14:37:10.601Z,22.96
2023-09-26T14:39:38.136Z,22.85
2023-09-26T14:42:05.771Z,22.81
2023-09-26T14:44:33.333Z,22.91
2023-09-26T14:47:01.161Z,22.84
2023-09-26T14:49:29.499Z,22.75
2023-09-26T14:51:57.148Z,22.70
2023-09-26T14:54:24.793Z,22.70
2023-09-26T14:56:52.444Z,22.78
2023-09-26T14:59:20.054Z,22.60
2023-09-26T15:01:47.683Z,22.59
2023-09-26T15:04:15.245Z,22.56
2023-09-26T15:06:42.839Z,22.45
2023-09-26T15:09:10.377Z,22.50
2023-09-26T15:11:38.126Z,22.48
2023-09-26T15:14:05.682Z,22.62
2023-09-26T15:16:33.350Z,22.49
2023-09-26T15:19:00.940Z,22.53
2023-09-26T15:21:28.814Z,22.38
2023-09-26T15:23:56.286Z,22.37
2023-09-26T15:26:24.008Z,22.33
2023-09-26T15:28:51.801Z,22.30
2023-09-26T15:31:20.425Z,22.34
2023-09-26T15:33:48.630Z,22.33
2023-09-26T15:36:17.180Z,22.22
2023-09-26T15:38:45.115Z,22.22
2023-09-26T15:41:16.492Z,22.27
2023-09-26T15:43:46.482Z,22.24
2023-09-26T15:46:14.273Z,22.07
2023-09-26T15:48:41.849Z,22.08
2023-09-26T15:51:12.103Z,21.97
2023-09-26T15:53:42.137Z,22.00
2023-09-26T15:56:09.816Z,22.04
2023-09-26T15:58:38.110Z,22.00
2023-09-26T16:01:06.600Z,22.00
2023-09-26T16:03:35.073Z,21.96
2023-09-26T16:06:03.763Z,21.92
2023-09-26T16:08:31.385Z,21.88
2023-09-26T16:10:59.163Z,21.74
2023-09-26T16:13:27.766Z,21.72
2023-09-26T16:15:55.358Z,21.67
2023-09-26T16:18:22.904Z,21.61
2023-09-26T16:20:50.398Z,21.59
2023-09-26T16:23:17.931Z,21.56
2023-09-26T16:25:45.540Z,21.49
2023-09-26T16:28:13.076Z,21.45
2023-09-26T16:30:40.696Z,21.39
2023-09-26T16:33:08.272Z,21.30
2023-09-26T16:35:35.932Z,21.27
2023-09-26T16:38:03.586Z,21.24
2023-09-26T16:40:31.977Z,21.17
2023-09-26T16:42:59.566Z,21.09
2023-09-26T16:45:28.740Z,21.02
2023-09-26T16:47:56.424Z,20.99
2023-09-26T16:50:24.219Z,20.90
2023-09-26T16:52:52.079Z,20.82
2023-09-26T16:55:19.969Z,20.74
2023-09-26T16:57:47.858Z,20.67
2023-09-26T17:00:15.968Z,20.65
2023-09-26T17:02:43.641Z,20.67
2023-09-26T17:05:11.420Z,20.62
2023-09-26T17:07:38.961Z,20.59
2023-09-26T17:10:08.322Z,20.56
2023-09-26T17:12:35.854Z,20.55
2023-09-26T17:15:03.641Z,20.47
2023-09-26T17:17:31.905Z,20.42
2023-09-26T17:20:05.461Z,20.34
2023-09-26T17:22:33.914Z,20.28
2023-09-26T17:25:01.853Z,20.23
2023-09-26T17:27:29.696Z,20.17
2023-09-26T17:29:57.366Z,20.11
2023-09-26T17:32:25.987Z,20.07
2023-09-26T17:34:53.666Z,20.03
2023-09-26T17:37:21.692Z,19.94
2023-09-26T17:39:49.235Z,19.79
2023-09-26T17:42:16.877Z,19.69
2023-09-26T17:44:44.316Z,19.54
2023-09-26T17:47:12.146Z,19.43
2023-09-26T17:49:39.729Z,19.37
2023-09-26T17:52:07.264Z,19.38
2023-09-26T17:54:34.802Z,19.36
2023-09-26T17:57:02.400Z,19.29
2023-09-26T17:59:30.032Z,19.24
2023-09-26T18:01:57.808Z,19.21
2023-09-26T18:04:25.530Z,19.19
2023-09-26T18:06:53.111Z,19.19
2023-09-26T18:09:21.048Z,19.16
2023-09-26T18:11:48.624Z,19.17
2023-09-26T18:14:16.419Z,19.16
2023-09-26T18:16:44.049Z,19.12
2023-09-26T18:19:11.675Z,19.12
2023-09-26T18:21:39.208Z,19.10
2023-09-26T18:24:06.777Z,19.09
2023-09-26T18:26:34.319Z,19.09
2023-09-26T18:29:02.292Z,19.08
2023-09-26T18:31:30.106Z,18.99
2023-09-26T18:33:57.664Z,18.96
2023-09-26T18:36:25.423Z,18.96
2023-09-26T18:38:52.885Z,18.92
2023-09-26T18:41:21.996Z,18.88
2023-09-26T18:43:49.857Z,18.83
2023-09-26T18:46:17.450Z,18.80
2023-09-26T18:48:45.040Z,18.78
2023-09-26T18:51:12.782Z,18.73
2023-09-26T18:53:40.401Z,18.74
2023-09-26T18:56:10.234Z,18.70
2023-09-26T18:58:37.878Z,18.64
2023-09-26T19:01:05.431Z,18.64
2023-09-26T19:03:33.282Z,18.63
2023-09-26T19:06:04.246Z,18.59
2023-09-26T19:08:32.391Z,18.65
2023-09-26T19:11:00.470Z,18.68
2023-09-26T19:13:28.202Z,18.72
2023-09-26T19:15:56.180Z,18.65
2023-09-26T19:18:23.856Z,18.60
2023-09-26T19:20:51.541Z,18.59
2023-09-26T19:23:19.300Z,18.52
2023-09-26T19:25:46.877Z,18.50
2023-09-26T19:28:16.298Z,18.42
2023-09-26T19:30:47.462Z,18.44
2023-09-26T19:33:15.224Z,18.39
2023-09-26T19:35:42.840Z,18.30
2023-09-26T19:38:10.492Z,18.21
2023-09-26T19:40:38.081Z,18.14
2023-09-26T19:43:07.649Z,18.07
2023-09-26T19:45:38.630Z,17.97
2023-09-26T19:48:07.243Z,17.99
2023-09-26T19:50:34.905Z,17.96
2023-09-26T19:53:02.558Z,17.91
2023-09-26T19:55:30.171Z,17.77
2023-09-26T19:57:58.619Z,17.74
2023-09-26T20:00:26.163Z,17.71
2023-09-26T20:02:53.837Z,17.76
2023-09-26T20:05:21.584Z,17.80
2023-09-26T20:07:49.242Z,17.78
2023-09-26T20:10:16.814Z,17.81
2023-09-26T20:12:45.533Z,17.83
2023-09-26T20:15:23.131Z,17.74
2023-09-26T20:17:52.321Z,17.73
2023-09-26T20:20:20.353Z,17.71
2023-09-26T20:22:50.092Z,17.69
2023-09-26T20:25:18.477Z,17.65
2023-09-26T20:27:46.448Z,17.62
2023-09-26T20:30:14.280Z,17.58
2023-09-26T20:32:41.957Z,17.57
2023-09-26T20:35:09.988Z,17.57
2023-09-26T20:37:37.594Z,17.56
2023-09-26T20:40:05.685Z,17.54
2023-09-26T20:42:33.258Z,17.51
2023-09-26T20:45:00.854Z,17.53
2023-09-26T20:47:29.186Z,17.51
2023-09-26T20:49:56.904Z,17.55
2023-09-26T20:52:24.527Z,17.57
2023-09-26T20:54:52.014Z,17.58
2023-09-26T20:57:19.600Z,17.54
2023-09-26T20:59:47.212Z,17.44
2023-09-26T21:02:14.716Z,17.34
2023-09-26T21:04:42.375Z,17.31
2023-09-26T21:07:10.008Z,17.24
2023-09-26T21:09:37.577Z,17.19
2023-09-26T21:12:07.750Z,17.14
2023-09-26T21:14:36.541Z,17.13
2023-09-26T21:17:04.250Z,17.14
2023-09-26T21:19:33.172Z,17.18
2023-09-26T21:22:00.791Z,17.23
2023-09-26T21:24:28.462Z,17.28
2023-09-26T21:26:56.061Z,17.30
2023-09-26T21:29:23.659Z,17.32
2023-09-26T21:31:51.231Z,17.32
2023-09-26T21:34:18.847Z,17.34
2023-09-26T21:36:46.397Z,17.35
2023-09-26T21:39:14.224Z,17.38
2023-09-26T21:41:42.256Z,17.35
2023-09-26T21:44:09.942Z,17.27
2023-09-26T21:46:37.631Z,17.25
2023-09-26T21:49:05.435Z,17.20
2023-09-26T21:51:33.652Z,17.21
2023-09-26T21:54:01.194Z,17.18
2023-09-26T21:56:29.256Z,17.16
2023-09-26T21:58:56.990Z,17.18
2023-09-26T22:01:24.769Z,17.13
2023-09-26T22:03:52.688Z,17.12
2023-09-26T22:06:20.392Z,17.13
2023-09-26T22:08:48.057Z,17.15
2023-09-26T22:11:15.674Z,17.16
2023-09-26T22:13:43.254Z,17.19
2023-09-26T22:16:10.873Z,17.19
2023-09-26T22:18:39.451Z,17.19
2023-09-26T22:21:07.024Z,17.22
2023-09-26T22:23:34.678Z,17.25
2023-09-26T22:26:02.220Z,17.24
2023-09-26T22:28:30.162Z,17.23
2023-09-26T22:30:57.687Z,17.20
2023-09-26T22:33:25.814Z,17.16
2023-09-26T22:35:53.351Z,17.19
2023-09-26T22:38:21.404Z,17.11
2023-09-26T22:40:51.797Z,17.14
2023-09-26T22:43:20.797Z,17.16
2023-09-26T22:45:49.338Z,17.16
2023-09-26T22:48:17.643Z,17.13
2023-09-26T22:50:46.960Z,17.10
2023-09-26T22:53:14.776Z,17.15
2023-09-26T22:55:42.411Z,17.04
2023-09-26T22:58:10.036Z,17.10
2023-09-26T23:00:37.677Z,17.09
2023-09-26T23:03:05.685Z,17.01
2023-09-26T23:05:39.865Z,16.99
2023-09-26T23:08:08.777Z,16.91
2023-09-26T23:10:36.560Z,16.85
2023-09-26T23:13:04.305Z,16.95
2023-09-26T23:15:31.850Z,17.03
2023-09-26T23:17:59.538Z,16.92
2023-09-26T23:20:27.273Z,16.97
2023-09-26T23:22:55.439Z,16.99
2023-09-26T23:25:23.088Z,16.94
2023-09-26T23:27:50.892Z,16.90
2023-09-26T23:30:18.790Z,16.95
2023-09-26T23:32:46.623Z,16.96
2023-09-26T23:35:20.433Z,16.97
2023-09-26T23:37:50.153Z,16.88
2023-09-26T23:40:20.878Z,16.87
2023-09-26T23:42:48.595Z,16.95
2023-09-26T23:45:16.199Z,17.10
2023-09-26T23:47:44.267Z,17.17
2023-09-26T23:50:11.995Z,17.18
2023-09-26T23:52:40.362Z,17.09
2023-09-26T23:55:10.883Z,17.00
2023-09-26T23:57:38.649Z,16.99
